createdAt,value
2023-01-11T00:05:58.784Z,100632.25
2023-01-11T01:16:09.773Z,100572.19
2023-01-11T04:27:01.083Z,100337.44
2023-01-11T04:48:52.248Z,100311.19
2023-01-11T05:24:38.624Z,100268.00
2023-01-11T05:27:06.248Z,100264.22
2023-01-11T05:29:33.028Z,100256.06
2023-01-11T05:31:59.882Z,100256.06
2023-01-11T05:34:26.642Z,100253.34
2023-01-11T05:36:56.342Z,100241.50
2023-01-11T05:39:24.010Z,100245.19
2023-01-11T05:41:50.759Z,100246.22
2023-01-11T05:44:36.607Z,100237.59
2023-01-11T05:47:04.339Z,100240.88
2023-01-11T05:49:31.117Z,100246.22
2023-01-11T05:51:57.789Z,100238.06
2023-01-11T05:54:24.536Z,100237.97
2023-01-11T05:56:51.235Z,100232.50
2023-01-11T05:59:20.625Z,100238.84
2023-01-11T06:01:47.641Z,100228.97
2023-01-11T06:04:14.658Z,100228.31
2023-01-11T06:06:41.766Z,100229.78
2023-01-11T06:09:08.933Z,100238.13
2023-01-11T06:11:35.729Z,100233.69
2023-01-11T06:14:03.035Z,100226.97
2023-01-11T06:16:29.739Z,100227.97
2023-01-11T06:18:56.490Z,100226.13
2023-01-11T06:21:24.445Z,100227.34
2023-01-11T06:23:51.494Z,100223.78
2023-01-11T06:26:23.320Z,100213.94
2023-01-11T06:28:52.569Z,100215.88
2023-01-11T06:31:19.589Z,100218.22
2023-01-11T06:33:47.164Z,100229.53
2023-01-11T06:36:14.644Z,100216.59
2023-01-11T06:38:41.651Z,100220.22
2023-01-11T06:41:08.860Z,100212.31
2023-01-11T06:43:37.228Z,100208.06
2023-01-11T06:46:05.101Z,100208.97
2023-01-11T06:48:31.898Z,100203.69
2023-01-11T06:50:58.858Z,100213.41
2023-01-11T06:53:28.456Z,100227.50
2023-01-11T06:55:57.169Z,100214.41
2023-01-11T06:58:25.407Z,100219.78
2023-01-11T07:00:53.802Z,100211.88
2023-01-11T07:03:21.234Z,100217.13
2023-01-11T07:05:48.286Z,100207.44
2023-01-11T07:08:15.431Z,100225.72
2023-01-11T07:10:44.278Z,100221.16
2023-01-11T07:13:11.818Z,100218.22
2023-01-11T07:15:38.589Z,100217.34
2023-01-11T07:18:05.398Z,100229.84
2023-01-11T07:20:32.155Z,100233.41
2023-01-11T07:22:59.929Z,100232.63
2023-01-11T07:25:28.028Z,100234.03
2023-01-11T07:27:57.183Z,100240.31
2023-01-11T07:30:24.671Z,100238.59
2023-01-11T07:32:51.364Z,100237.69
2023-01-11T07:35:18.064Z,100240.31
2023-01-11T07:37:45.623Z,100234.03
2023-01-11T07:40:13.156Z,100237.59
2023-01-11T07:42:58.792Z,100236.69
2023-01-11T07:45:29.215Z,100226.34
2023-01-11T07:48:05.714Z,100231.47
2023-01-11T07:50:32.848Z,100222.03
2023-01-11T07:52:59.540Z,100230.63
2023-01-11T07:55:26.271Z,100231.41
2023-01-11T07:57:54.000Z,100226.22
2023-01-11T08:00:21.470Z,100220.94
2023-01-11T08:02:52.840Z,100227.84
2023-01-11T08:05:22.095Z,100234.03
2023-01-11T08:07:48.867Z,100221.59
2023-01-11T08:10:16.145Z,100222.09
2023-01-11T08:13:05.782Z,100214.41
2023-01-11T08:15:33.468Z,100213.31
2023-01-11T08:18:00.877Z,100217.56
2023-01-11T08:20:27.673Z,100217.75
2023-01-11T08:22:54.709Z,100215.88
2023-01-11T08:25:21.593Z,100218.28
2023-01-11T08:27:48.275Z,100216.25
2023-01-11T08:30:17.993Z,100204.69
2023-01-11T08:32:44.898Z,100206.81
2023-01-11T08:35:12.383Z,100211.66
2023-01-11T08:37:39.060Z,100213.38
2023-01-11T08:40:06.318Z,100212.34
2023-01-11T08:42:34.181Z,100216.88
2023-01-11T08:45:00.932Z,100202.19
2023-01-11T08:47:27.751Z,100200.19
2023-01-11T08:49:57.006Z,100199.34
2023-01-11T08:52:23.928Z,100206.16
2023-01-11T08:54:50.894Z,100201.31
2023-01-11T08:57:17.736Z,100207.59
2023-01-11T08:59:44.672Z,100198.75
2023-01-11T09:02:12.865Z,100198.94
2023-01-11T09:04:39.951Z,100200.41
2023-01-11T09:07:06.720Z,100195.13
2023-01-11T09:09:33.479Z,100208.84
2023-01-11T09:12:05.475Z,100204.56
2023-01-11T09:14:32.531Z,100198.28
2023-01-11T09:16:59.367Z,100212.41
2023-01-11T09:19:26.260Z,100204.56
2023-01-11T09:21:53.658Z,100209.16
2023-01-11T09:24:23.007Z,100199.38
2023-01-11T09:26:49.748Z,100196.66
2023-01-11T09:29:19.596Z,100191.19
2023-01-11T09:31:46.451Z,100186.00
2023-01-11T09:34:13.443Z,100191.06
2023-01-11T09:36:40.759Z,100181.25
2023-01-11T09:39:11.758Z,100178.72
2023-01-11T09:41:41.699Z,100187.72
2023-01-11T09:44:16.443Z,100179.19
2023-01-11T09:46:50.106Z,100179.28
2023-01-11T09:49:20.363Z,100178.34
2023-01-11T09:51:47.815Z,100185.09
2023-01-11T09:54:19.178Z,100171.97
2023-01-11T09:56:53.801Z,100178.88
2023-01-11T09:59:33.551Z,100173.84
2023-01-11T10:02:17.448Z,100165.25
2023-01-11T10:05:19.744Z,100168.41
2023-01-11T10:18:29.206Z,100150.53
2023-01-11T10:19:38.637Z,100150.53
2023-01-11T10:22:19.754Z,100147.81
2023-01-11T10:24:56.496Z,100141.59
2023-01-11T10:27:37.471Z,100138.88
2023-01-11T10:30:41.896Z,100139.53
2023-01-11T10:33:37.995Z,100127.22
2023-01-11T10:36:34.829Z,100130.78
2023-01-11T10:39:32.851Z,100134.13
2023-01-11T10:42:11.781Z,100130.59
2023-01-11T10:44:43.158Z,100123.56
2023-01-11T10:47:19.874Z,100125.94
2023-01-11T10:50:00.224Z,100123.97
2023-01-11T10:52:30.235Z,100128.25
2023-01-11T10:55:26.747Z,100116.75
2023-01-11T10:58:18.562Z,100124.59
2023-01-11T11:00:57.182Z,100112.31
2023-01-11T11:03:33.958Z,100117.41
2023-01-11T11:06:25.247Z,100111.19
2023-01-11T11:09:07.487Z,100107.81
2023-01-11T11:11:59.251Z,100090.84
2023-01-11T11:14:44.370Z,100097.81
2023-01-11T11:17:29.048Z,100081.81
2023-01-11T11:19:57.649Z,100086.00
2023-01-11T11:22:24.776Z,100082.31
2023-01-11T11:25:16.217Z,100086.75
2023-01-11T11:27:48.164Z,100076.16
2023-01-11T11:30:26.665Z,100081.41
2023-01-11T11:33:00.918Z,100080.19
2023-01-11T11:35:31.696Z,100075.66
2023-01-11T11:37:58.667Z,100077.72
2023-01-11T11:40:39.087Z,100072.50
2023-01-11T11:43:25.924Z,100068.84
2023-01-11T11:45:59.659Z,100076.44
2023-01-11T11:48:28.540Z,100065.75
2023-01-11T11:50:58.066Z,100064.75
2023-01-11T11:53:29.410Z,100070.03
2023-01-11T11:55:56.147Z,100074.97
2023-01-11T11:58:24.388Z,100071.53
2023-01-11T12:00:52.305Z,100061.25
2023-01-11T12:03:28.250Z,100066.53
2023-01-11T12:06:03.199Z,100061.16
2023-01-11T12:08:32.029Z,100052.31
2023-01-11T12:11:00.424Z,100042.69
2023-01-11T12:13:33.765Z,100043.72
2023-01-11T12:16:03.230Z,100036.53
2023-01-11T12:18:42.523Z,100030.16
2023-01-11T12:21:23.795Z,100023.91
2023-01-11T12:24:19.594Z,100026.53
2023-01-11T12:27:05.420Z,100029.13
2023-01-11T12:29:46.308Z,100027.22
2023-01-11T12:32:22.395Z,100026.78
2023-01-11T12:35:17.417Z,100026.09
2023-01-11T12:37:53.789Z,100019.59
2023-01-11T12:40:37.575Z,100016.22
2023-01-11T12:43:42.930Z,100018.06
2023-01-11T12:46:35.313Z,100016.31
2023-01-11T12:49:20.888Z,100022.16
2023-01-11T12:52:02.967Z,100018.66
2023-01-11T12:54:44.546Z,100019.53
2023-01-11T12:57:26.257Z,100008.97
2023-01-11T13:00:03.444Z,100013.28
2023-01-11T13:02:50.734Z,100009.03
2023-01-11T13:05:26.332Z,99999.13
2023-01-11T13:08:46.783Z,99996.50
2023-01-11T13:11:35.484Z,99984.91
2023-01-11T13:14:23.603Z,99992.66
2023-01-11T13:17:05.467Z,99989.16
2023-01-11T13:19:43.892Z,99992.84
2023-01-11T13:22:19.475Z,99996.06
2023-01-11T13:24:47.562Z,100000.56
2023-01-11T13:27:19.021Z,99998.72
2023-01-11T13:29:47.713Z,99994.25
2023-01-11T13:32:17.072Z,100003.78
2023-01-11T13:35:20.278Z,100000.31
2023-01-11T13:38:05.204Z,100001.09
2023-01-11T13:40:39.153Z,100001.72
2023-01-11T13:43:10.361Z,100012.41
2023-01-11T13:45:44.425Z,100013.19
2023-01-11T13:48:53.955Z,100007.31
2023-01-11T13:51:39.274Z,100012.31
2023-01-11T13:54:14.227Z,100004.38
2023-01-11T13:56:43.437Z,100010.34
2023-01-11T13:59:19.309Z,100010.03
2023-01-11T14:01:59.245Z,99997.88
2023-01-11T14:04:32.507Z,100004.13
2023-01-11T14:07:09.845Z,100005.88
2023-01-11T14:09:59.203Z,100013.56
2023-01-11T14:12:57.752Z,100009.19
2023-01-11T14:15:39.439Z,100015.16
2023-01-11T14:18:25.477Z,100017.91
2023-01-11T14:21:03.694Z,100018.84
2023-01-11T14:23:50.235Z,100023.00
2023-01-11T14:26:38.847Z,100014.03
2023-01-11T14:29:30.748Z,100019.13
2023-01-11T14:32:47.636Z,100017.59
2023-01-11T14:35:40.735Z,100015.06
2023-01-11T14:38:35.952Z,100020.06
2023-01-11T14:41:20.018Z,100024.50
2023-01-11T14:44:22.489Z,100020.06
2023-01-11T14:47:05.622Z,100022.53
2023-01-11T14:50:09.371Z,100024.50
2023-01-11T14:52:40.561Z,100025.28
2023-01-11T14:55:16.711Z,100027.91
2023-01-11T14:57:45.008Z,100026.94
2023-01-11T15:00:20.761Z,100025.66
2023-01-11T15:02:51.923Z,100033.69
2023-01-11T15:05:35.528Z,100039.13
2023-01-11T15:08:14.314Z,100029.13
2023-01-11T15:11:20.774Z,100027.38
2023-01-11T15:13:55.220Z,100031.88
2023-01-11T15:16:59.081Z,100038.00
2023-01-11T15:19:34.218Z,100031.63
2023-01-11T15:22:03.022Z,100036.81
2023-01-11T15:24:40.607Z,100029.72
2023-01-11T15:27:07.387Z,100041.06
2023-01-11T15:29:39.378Z,100045.31
2023-01-11T15:32:15.189Z,100049.00
2023-01-11T15:34:45.237Z,100049.63
2023-01-11T15:37:22.039Z,100051.34
2023-01-11T15:39:56.871Z,100052.94
2023-01-11T15:42:47.804Z,100054.75
2023-01-11T15:45:15.607Z,100061.19
2023-01-11T15:48:07.957Z,100060.13
2023-01-11T15:50:59.217Z,100058.34
2023-01-11T15:53:43.158Z,100065.13
2023-01-11T15:56:41.270Z,100060.63
2023-01-11T15:59:33.353Z,100069.28
2023-01-11T16:02:23.572Z,100076.19
2023-01-11T16:04:57.962Z,100068.16
2023-01-11T16:07:37.139Z,100073.63
2023-01-11T16:10:30.242Z,100084.69
2023-01-11T16:17:40.382Z,100088.59
2023-01-11T16:20:29.016Z,100087.91
2023-01-11T16:22:58.373Z,100110.69
2023-01-11T16:25:29.163Z,100108.88
2023-01-11T16:27:57.378Z,100107.09
2023-01-11T16:30:25.218Z,100117.59
2023-01-11T16:32:52.204Z,100102.66
2023-01-11T16:35:25.125Z,100116.56
2023-01-11T16:37:56.480Z,100115.69
2023-01-11T16:40:29.861Z,100120.13
2023-01-11T16:42:59.083Z,100120.88
2023-01-11T16:45:39.862Z,100129.59
2023-01-11T16:48:15.852Z,100133.16
2023-01-11T16:51:04.060Z,100134.78
2023-01-11T16:53:32.186Z,100145.25
2023-01-11T16:56:10.851Z,100154.91
2023-01-11T16:58:39.132Z,100155.84
2023-01-11T17:01:13.778Z,100154.06
2023-01-11T17:03:50.029Z,100128.81
2023-01-11T17:06:22.338Z,100136.69
2023-01-11T17:08:54.859Z,100141.31
2023-01-11T17:11:30.261Z,100163.03
2023-01-11T17:14:28.133Z,100160.19
2023-01-11T17:17:02.547Z,100166.16
2023-01-11T17:19:37.686Z,100167.19
2023-01-11T17:22:27.234Z,100171.56
2023-01-11T17:25:08.652Z,100159.16
2023-01-11T17:27:43.104Z,100152.25
2023-01-11T17:30:25.679Z,100157.34
2023-01-11T17:33:02.114Z,100178.38
2023-01-11T17:35:34.016Z,100177.50
2023-01-11T17:38:03.561Z,100163.22
2023-01-11T17:40:33.062Z,100157.47
2023-01-11T17:43:37.821Z,100167.09
2023-01-11T17:46:24.489Z,100177.78
2023-01-11T17:48:58.393Z,100173.81
2023-01-11T17:51:32.924Z,100178.16
2023-01-11T17:53:59.840Z,100182.31
2023-01-11T17:56:33.847Z,100189.63
2023-01-11T17:59:21.547Z,100181.84
2023-01-11T18:01:50.532Z,100183.47
2023-01-11T18:04:22.267Z,100178.94
2023-01-11T18:06:50.844Z,100193.00
2023-01-11T18:09:22.399Z,100192.28
2023-01-11T18:11:50.503Z,100204.84
2023-01-11T18:14:28.310Z,100198.59
2023-01-11T18:17:05.113Z,100204.63
2023-01-11T18:19:34.951Z,100211.63
2023-01-11T18:22:02.023Z,100217.13
2023-01-11T18:24:43.412Z,100219.94
2023-01-11T18:27:19.284Z,100234.88
2023-01-11T18:29:47.824Z,100223.16
2023-01-11T18:32:15.424Z,100234.69
2023-01-11T18:34:47.191Z,100229.38
2023-01-11T18:37:21.877Z,100225.41
2023-01-11T18:39:59.522Z,100221.84
2023-01-11T18:42:28.982Z,100223.63
2023-01-11T18:44:55.715Z,100235.16
2023-01-11T18:47:28.711Z,100237.72
2023-01-11T18:49:56.568Z,100236.84
2023-01-11T18:52:27.749Z,100245.66
2023-01-11T18:54:55.730Z,100236.28
2023-01-11T18:57:23.689Z,100253.19
2023-01-11T18:59:52.701Z,100243.28
2023-01-11T19:02:33.247Z,100248.47
2023-01-11T19:05:00.245Z,100247.81
2023-01-11T19:07:27.502Z,100251.31
2023-01-11T19:09:57.927Z,100250.63
2023-01-11T19:12:25.170Z,100257.72
2023-01-11T19:14:59.570Z,100259.59
2023-01-11T19:17:29.930Z,100274.44
2023-01-11T19:19:58.123Z,100277.00
2023-01-11T19:22:36.051Z,100280.31
2023-01-11T19:25:03.833Z,100274.44
2023-01-11T19:27:30.544Z,100280.59
2023-01-11T19:29:58.317Z,100279.56
2023-01-11T19:32:25.782Z,100270.03
2023-01-11T19:34:53.762Z,100277.53
2023-01-11T19:37:20.906Z,100289.34
2023-01-11T19:39:49.107Z,100292.16
2023-01-11T19:45:37.830Z,100288.44
2023-01-11T19:48:39.200Z,100304.22
2023-01-11T19:51:23.685Z,100302.44
2023-01-11T19:54:08.089Z,100298.19
2023-01-11T19:56:36.310Z,100311.22
2023-01-11T19:59:13.127Z,100312.16
2023-01-11T20:01:41.593Z,100314.09
2023-01-11T20:04:09.304Z,100321.19
2023-01-11T20:06:36.145Z,100320.19
2023-01-11T20:09:03.955Z,100319.59
2023-01-11T20:11:33.514Z,100326.59
2023-01-11T20:14:00.436Z,100320.50
2023-01-11T20:16:29.939Z,100317.13
2023-01-11T20:18:57.569Z,100333.09
2023-01-11T20:21:27.018Z,100333.81
2023-01-11T20:23:59.046Z,100333.13
2023-01-11T20:26:27.166Z,100335.78
2023-01-11T20:28:56.822Z,100345.63
2023-01-11T20:31:28.430Z,100342.97
2023-01-11T20:33:56.311Z,100340.22
2023-01-11T20:36:24.402Z,100339.53
2023-01-11T20:38:54.599Z,100344.31
2023-01-11T20:41:42.386Z,100351.09
2023-01-11T20:44:09.751Z,100341.84
2023-01-11T20:46:40.830Z,100341.03
2023-01-11T20:49:11.809Z,100349.78
2023-01-11T20:51:39.179Z,100356.44
2023-01-11T20:54:09.987Z,100344.84
2023-01-11T20:56:38.666Z,100349.50
2023-01-11T20:59:07.755Z,100353.03
2023-01-11T21:01:36.995Z,100361.88
2023-01-11T21:04:06.878Z,100353.03
2023-01-11T21:06:35.862Z,100348.84
2023-01-11T21:09:03.573Z,100354.19
2023-01-11T21:11:33.942Z,100349.09
2023-01-11T21:14:13.335Z,100347.31
2023-01-11T21:16:44.349Z,100339.63
2023-01-11T21:19:15.274Z,100335.59
2023-01-11T21:21:43.114Z,100342.53
2023-01-11T21:24:13.857Z,100353.63
2023-01-11T21:26:42.654Z,100337.78
2023-01-11T21:29:10.622Z,100360.44
2023-01-11T21:31:38.397Z,100347.19
2023-01-11T21:34:05.404Z,100352.78
2023-01-11T21:36:32.865Z,100355.44
2023-01-11T21:39:00.773Z,100350.94
2023-01-11T21:41:47.959Z,100341.28
2023-01-11T21:44:16.260Z,100339.13
2023-01-11T21:46:44.036Z,100350.97
2023-01-11T21:49:13.577Z,100350.22
2023-01-11T21:51:40.838Z,100347.50
2023-01-11T21:54:10.409Z,100348.69
2023-01-11T21:56:39.022Z,100343.31
2023-01-11T21:59:05.947Z,100345.09
2023-01-11T22:01:52.874Z,100361.50
